sensor_id;sensor_type;location;lat;lon;timestamp;P1;durP1;ratioP1;P2;durP2;ratioP2
52894;SDS011;38759;53.396;6.722;2022-10-16T15:38:49;9.63;;;2.80;;
52894;SDS011;38759;53.396;6.722;2022-10-16T15:41:15;16.38;;;3.10;;
52894;SDS011;38759;53.396;6.722;2022-10-16T15:43:41;19.92;;;2.95;;
52894;SDS011;38759;53.396;6.722;2022-10-16T15:46:08;13.43;;;2.75;;
52894;SDS011;38759;53.396;6.722;2022-10-16T15:48:37;21.15;;;3.38;;
52894;SDS011;38759;53.396;6.722;2022-10-16T15:51:06;13.52;;;2.75;;
52894;SDS011;38759;53.396;6.722;2022-10-16T15:53:33;17.88;;;3.30;;
52894;SDS011;38759;53.396;6.722;2022-10-16T15:56:03;14.70;;;3.13;;
52894;SDS011;38759;53.396;6.722;2022-10-16T15:58:29;19.88;;;2.85;;
52894;SDS011;38759;53.396;6.722;2022-10-16T16:00:58;17.30;;;3.03;;
52894;SDS011;38759;53.396;6.722;2022-10-16T16:03:26;16.15;;;3.13;;
52894;SDS011;38759;53.396;6.722;2022-10-16T16:05:53;19.40;;;3.88;;
52894;SDS011;38759;53.396;6.722;2022-10-16T16:08:19;17.65;;;3.17;;
52894;SDS011;38759;53.396;6.722;2022-10-16T16:10:45;14.88;;;3.05;;
52894;SDS011;38759;53.396;6.722;2022-10-16T16:13:11;12.85;;;2.70;;
52894;SDS011;38759;53.396;6.722;2022-10-16T16:15:39;18.15;;;2.75;;
52894;SDS011;38759;53.396;6.722;2022-10-16T16:18:05;16.65;;;3.22;;
52894;SDS011;38759;53.396;6.722;2022-10-16T16:20:31;12.43;;;2.42;;
52894;SDS011;38759;53.396;6.722;2022-10-16T16:22:57;13.23;;;2.60;;
52894;SDS011;38759;53.396;6.722;2022-10-16T16:25:23;9.75;;;2.55;;
52894;SDS011;38759;53.396;6.722;2022-10-16T16:27:48;16.92;;;3.13;;
52894;SDS011;38759;53.396;6.722;2022-10-16T16:30:14;16.58;;;3.17;;
52894;SDS011;38759;53.396;6.722;2022-10-16T16:32:40;14.32;;;2.88;;
52894;SDS011;38759;53.396;6.722;2022-10-16T16:35:06;19.88;;;3.00;;
52894;SDS011;38759;53.396;6.722;2022-10-16T16:37:32;15.30;;;3.00;;
52894;SDS011;38759;53.396;6.722;2022-10-16T16:39:57;15.27;;;3.00;;
52894;SDS011;38759;53.396;6.722;2022-10-16T16:42:24;17.13;;;3.20;;
52894;SDS011;38759;53.396;6.722;2022-10-16T16:44:53;22.23;;;2.83;;
52894;SDS011;38759;53.396;6.722;2022-10-16T16:47:19;18.83;;;2.72;;
52894;SDS011;38759;53.396;6.722;2022-10-16T16:49:44;18.48;;;3.15;;
52894;SDS011;38759;53.396;6.722;2022-10-16T16:52:11;17.98;;;3.00;;
52894;SDS011;38759;53.396;6.722;2022-10-16T16:54:38;13.25;;;2.60;;
52894;SDS011;38759;53.396;6.722;2022-10-16T16:57:03;13.15;;;2.92;;
52894;SDS011;38759;53.396;6.722;2022-10-16T16:59:29;17.00;;;2.88;;
52894;SDS011;38759;53.396;6.722;2022-10-16T17:01:57;14.85;;;2.92;;
52894;SDS011;38759;53.396;6.722;2022-10-16T17:04:24;15.20;;;3.08;;
52894;SDS011;38759;53.396;6.722;2022-10-16T17:06:50;19.52;;;3.10;;
52894;SDS011;38759;53.396;6.722;2022-10-16T17:09:19;18.73;;;2.90;;
52894;SDS011;38759;53.396;6.722;2022-10-16T17:11:45;18.38;;;2.83;;
52894;SDS011;38759;53.396;6.722;2022-10-16T17:14:11;14.27;;;2.72;;
52894;SDS011;38759;53.396;6.722;2022-10-16T17:16:37;17.35;;;3.22;;
52894;SDS011;38759;53.396;6.722;2022-10-16T17:19:05;16.92;;;3.03;;
52894;SDS011;38759;53.396;6.722;2022-10-16T17:21:33;11.88;;;2.45;;
52894;SDS011;38759;53.396;6.722;2022-10-16T17:23:59;9.90;;;2.40;;
52894;SDS011;38759;53.396;6.722;2022-10-16T17:26:25;14.77;;;2.85;;
52894;SDS011;38759;53.396;6.722;2022-10-16T17:28:52;7.95;;;1.95;;
52894;SDS011;38759;53.396;6.722;2022-10-16T17:31:21;9.45;;;2.60;;
52894;SDS011;38759;53.396;6.722;2022-10-16T17:33:48;8.23;;;2.05;;
52894;SDS011;38759;53.396;6.722;2022-10-16T17:36:15;15.40;;;2.50;;
52894;SDS011;38759;53.396;6.722;2022-10-16T17:38:41;9.65;;;2.05;;
52894;SDS011;38759;53.396;6.722;2022-10-16T17:43:47;12.85;;;2.38;;
52894;SDS011;38759;53.396;6.722;2022-10-16T17:46:14;10.25;;;2.42;;
52894;SDS011;38759;53.396;6.722;2022-10-16T17:48:45;9.07;;;2.10;;
52894;SDS011;38759;53.396;6.722;2022-10-16T17:51:13;12.23;;;2.50;;
52894;SDS011;38759;53.396;6.722;2022-10-16T17:53:41;13.00;;;2.72;;
52894;SDS011;38759;53.396;6.722;2022-10-16T17:56:09;16.77;;;3.25;;
52894;SDS011;38759;53.396;6.722;2022-10-16T17:58:37;20.00;;;3.00;;
52894;SDS011;38759;53.396;6.722;2022-10-16T18:01:16;18.23;;;3.22;;
52894;SDS011;38759;53.396;6.722;2022-10-16T18:03:51;14.30;;;3.00;;
52894;SDS011;38759;53.396;6.722;2022-10-16T18:06:19;14.15;;;2.47;;
52894;SDS011;38759;53.396;6.722;2022-10-16T18:08:45;13.57;;;2.40;;
52894;SDS011;38759;53.396;6.722;2022-10-16T18:11:11;13.65;;;2.90;;
52894;SDS011;38759;53.396;6.722;2022-10-16T18:13:37;13.68;;;2.90;;
52894;SDS011;38759;53.396;6.722;2022-10-16T18:16:04;15.13;;;3.10;;
52894;SDS011;38759;53.396;6.722;2022-10-16T18:18:33;13.15;;;2.95;;
52894;SDS011;38759;53.396;6.722;2022-10-16T18:20:59;18.85;;;2.90;;
52894;SDS011;38759;53.396;6.722;2022-10-16T18:23:26;17.92;;;4.00;;
52894;SDS011;38759;53.396;6.722;2022-10-16T18:25:53;30.88;;;4.15;;
52894;SDS011;38759;53.396;6.722;2022-10-16T18:28:19;12.00;;;2.95;;
52894;SDS011;38759;53.396;6.722;2022-10-16T18:30:47;18.08;;;3.70;;
52894;SDS011;38759;53.396;6.722;2022-10-16T18:33:20;19.27;;;4.03;;
52894;SDS011;38759;53.396;6.722;2022-10-16T18:35:45;18.35;;;3.50;;
52894;SDS011;38759;53.396;6.722;2022-10-16T18:38:11;17.23;;;4.15;;
52894;SDS011;38759;53.396;6.722;2022-10-16T18:40:37;16.75;;;3.67;;
52894;SDS011;38759;53.396;6.722;2022-10-16T18:43:02;19.73;;;3.78;;
52894;SDS011;38759;53.396;6.722;2022-10-16T18:45:28;13.07;;;3.25;;
52894;SDS011;38759;53.396;6.722;2022-10-16T18:47:53;24.38;;;3.42;;
52894;SDS011;38759;53.396;6.722;2022-10-16T18:50:20;13.77;;;3.35;;
52894;SDS011;38759;53.396;6.722;2022-10-16T18:52:47;18.30;;;3.70;;
52894;SDS011;38759;53.396;6.722;2022-10-16T18:55:13;16.45;;;3.13;;
52894;SDS011;38759;53.396;6.722;2022-10-16T18:57:39;14.88;;;3.35;;
52894;SDS011;38759;53.396;6.722;2022-10-16T19:00:04;17.77;;;3.83;;
52894;SDS011;38759;53.396;6.722;2022-10-16T19:02:31;16.75;;;4.05;;
52894;SDS011;38759;53.396;6.722;2022-10-16T19:04:57;22.17;;;4.13;;
52894;SDS011;38759;53.396;6.722;2022-10-16T19:07:23;16.42;;;4.20;;
52894;SDS011;38759;53.396;6.722;2022-10-16T19:09:49;18.15;;;4.25;;
52894;SDS011;38759;53.396;6.722;2022-10-16T19:12:14;14.75;;;3.88;;
52894;SDS011;38759;53.396;6.722;2022-10-16T19:14:40;16.42;;;4.47;;
52894;SDS011;38759;53.396;6.722;2022-10-16T19:17:06;15.75;;;4.03;;
52894;SDS011;38759;53.396;6.722;2022-10-16T19:19:33;19.17;;;4.40;;
52894;SDS011;38759;53.396;6.722;2022-10-16T19:21:58;23.00;;;4.25;;
52894;SDS011;38759;53.396;6.722;2022-10-16T19:24:38;17.60;;;3.92;;
52894;SDS011;38759;53.396;6.722;2022-10-16T19:27:05;23.00;;;4.00;;
52894;SDS011;38759;53.396;6.722;2022-10-16T19:29:31;15.43;;;3.70;;
52894;SDS011;38759;53.396;6.722;2022-10-16T19:31:58;13.63;;;3.78;;
52894;SDS011;38759;53.396;6.722;2022-10-16T19:34:26;19.58;;;3.90;;
52894;SDS011;38759;53.396;6.722;2022-10-16T19:36:53;15.75;;;4.13;;
52894;SDS011;38759;53.396;6.722;2022-10-16T19:39:19;18.08;;;4.10;;
52894;SDS011;38759;53.396;6.722;2022-10-16T19:41:46;18.23;;;4.85;;
52894;SDS011;38759;53.396;6.722;2022-10-16T19:44:12;15.65;;;3.72;;
52894;SDS011;38759;53.396;6.722;2022-10-16T19:46:39;19.13;;;4.20;;
52894;SDS011;38759;53.396;6.722;2022-10-16T19:49:07;16.88;;;3.90;;
52894;SDS011;38759;53.396;6.722;2022-10-16T19:51:34;24.10;;;4.50;;
52894;SDS011;38759;53.396;6.722;2022-10-16T19:54:02;15.32;;;4.18;;
52894;SDS011;38759;53.396;6.722;2022-10-16T19:56:29;13.13;;;3.85;;
52894;SDS011;38759;53.396;6.722;2022-10-16T19:58:57;20.42;;;4.43;;
52894;SDS011;38759;53.396;6.722;2022-10-16T20:01:24;22.10;;;5.00;;
52894;SDS011;38759;53.396;6.722;2022-10-16T20:03:51;20.85;;;4.53;;
52894;SDS011;38759;53.396;6.722;2022-10-16T20:06:17;18.90;;;4.70;;
52894;SDS011;38759;53.396;6.722;2022-10-16T20:08:44;19.10;;;4.25;;
52894;SDS011;38759;53.396;6.722;2022-10-16T20:11:13;19.52;;;4.53;;
52894;SDS011;38759;53.396;6.722;2022-10-16T20:13:40;19.35;;;4.50;;
52894;SDS011;38759;53.396;6.722;2022-10-16T20:16:06;20.00;;;4.82;;
52894;SDS011;38759;53.396;6.722;2022-10-16T20:18:32;14.88;;;4.38;;
52894;SDS011;38759;53.396;6.722;2022-10-16T20:20:58;13.93;;;4.05;;
52894;SDS011;38759;53.396;6.722;2022-10-16T20:23:24;20.77;;;4.90;;
52894;SDS011;38759;53.396;6.722;2022-10-16T20:25:49;16.40;;;4.03;;
52894;SDS011;38759;53.396;6.722;2022-10-16T20:28:17;19.70;;;4.45;;
52894;SDS011;38759;53.396;6.722;2022-10-16T20:30:45;19.20;;;4.70;;
52894;SDS011;38759;53.396;6.722;2022-10-16T20:33:13;18.05;;;5.03;;
52894;SDS011;38759;53.396;6.722;2022-10-16T20:35:42;18.30;;;4.40;;
52894;SDS011;38759;53.396;6.722;2022-10-16T20:38:10;21.27;;;4.85;;
52894;SDS011;38759;53.396;6.722;2022-10-16T20:40:37;14.40;;;4.60;;
52894;SDS011;38759;53.396;6.722;2022-10-16T20:43:04;14.75;;;4.57;;
52894;SDS011;38759;53.396;6.722;2022-10-16T20:45:31;17.70;;;4.35;;
52894;SDS011;38759;53.396;6.722;2022-10-16T20:47:57;18.42;;;5.13;;
52894;SDS011;38759;53.396;6.722;2022-10-16T20:50:23;19.48;;;4.40;;
52894;SDS011;38759;53.396;6.722;2022-10-16T20:52:52;16.55;;;4.70;;
52894;SDS011;38759;53.396;6.722;2022-10-16T20:55:18;20.88;;;4.15;;
52894;SDS011;38759;53.396;6.722;2022-10-16T20:57:44;13.27;;;4.03;;
52894;SDS011;38759;53.396;6.722;2022-10-16T21:00:10;16.38;;;4.60;;
52894;SDS011;38759;53.396;6.722;2022-10-16T21:02:36;22.40;;;4.70;;
52894;SDS011;38759;53.396;6.722;2022-10-16T21:05:02;21.45;;;4.65;;
52894;SDS011;38759;53.396;6.722;2022-10-16T21:07:27;20.25;;;4.82;;
52894;SDS011;38759;53.396;6.722;2022-10-16T21:09:53;18.08;;;4.35;;
52894;SDS011;38759;53.396;6.722;2022-10-16T21:12:21;17.67;;;4.53;;
52894;SDS011;38759;53.396;6.722;2022-10-16T21:14:47;17.48;;;4.30;;
52894;SDS011;38759;53.396;6.722;2022-10-16T21:17:13;20.83;;;4.85;;
52894;SDS011;38759;53.396;6.722;2022-10-16T21:19:39;13.13;;;4.03;;
52894;SDS011;38759;53.396;6.722;2022-10-16T21:22:04;16.08;;;4.00;;
52894;SDS011;38759;53.396;6.722;2022-10-16T21:24:30;25.08;;;4.53;;
52894;SDS011;38759;53.396;6.722;2022-10-16T21:26:55;15.77;;;4.85;;
52894;SDS011;38759;53.396;6.722;2022-10-16T21:29:21;20.50;;;4.20;;
52894;SDS011;38759;53.396;6.722;2022-10-16T21:31:47;17.83;;;4.10;;
52894;SDS011;38759;53.396;6.722;2022-10-16T21:34:12;20.88;;;4.63;;
52894;SDS011;38759;53.396;6.722;2022-10-16T21:36:39;18.30;;;3.90;;
52894;SDS011;38759;53.396;6.722;2022-10-16T21:39:07;13.85;;;3.80;;
52894;SDS011;38759;53.396;6.722;2022-10-16T21:41:38;14.20;;;3.70;;
52894;SDS011;38759;53.396;6.722;2022-10-16T21:44:05;18.27;;;3.80;;
52894;SDS011;38759;53.396;6.722;2022-10-16T21:46:32;13.85;;;3.58;;
52894;SDS011;38759;53.396;6.722;2022-10-16T21:49:00;14.35;;;3.88;;
52894;SDS011;38759;53.396;6.722;2022-10-16T21:51:46;14.48;;;4.07;;
52894;SDS011;38759;53.396;6.722;2022-10-16T21:54:15;19.35;;;4.57;;
52894;SDS011;38759;53.396;6.722;2022-10-16T21:56:42;15.43;;;3.80;;
52894;SDS011;38759;53.396;6.722;2022-10-16T21:59:09;16.83;;;4.60;;
52894;SDS011;38759;53.396;6.722;2022-10-16T22:01:36;16.35;;;4.43;;
52894;SDS011;38759;53.396;6.722;2022-10-16T22:04:02;17.23;;;4.28;;
52894;SDS011;38759;53.396;6.722;2022-10-16T22:06:28;16.75;;;4.60;;
52894;SDS011;38759;53.396;6.722;2022-10-16T22:08:55;15.82;;;4.50;;
52894;SDS011;38759;53.396;6.722;2022-10-16T22:11:34;18.63;;;4.65;;
52894;SDS011;38759;53.396;6.722;2022-10-16T22:14:01;20.42;;;5.00;;
52894;SDS011;38759;53.396;6.722;2022-10-16T22:16:49;16.77;;;4.43;;
52894;SDS011;38759;53.396;6.722;2022-10-16T22:19:16;17.27;;;4.68;;
52894;SDS011;38759;53.396;6.722;2022-10-16T22:21:42;20.77;;;4.85;;
52894;SDS011;38759;53.396;6.722;2022-10-16T22:24:10;19.55;;;4.72;;
52894;SDS011;38759;53.396;6.722;2022-10-16T22:26:36;23.30;;;4.68;;
52894;SDS011;38759;53.396;6.722;2022-10-16T22:29:03;17.95;;;4.40;;
52894;SDS011;38759;53.396;6.722;2022-10-16T22:31:29;19.05;;;4.07;;
52894;SDS011;38759;53.396;6.722;2022-10-16T22:33:55;13.23;;;3.60;;
52894;SDS011;38759;53.396;6.722;2022-10-16T22:36:23;24.23;;;5.80;;
52894;SDS011;38759;53.396;6.722;2022-10-16T22:38:49;20.73;;;5.45;;
52894;SDS011;38759;53.396;6.722;2022-10-16T22:41:16;18.58;;;5.85;;
52894;SDS011;38759;53.396;6.722;2022-10-16T22:43:45;18.63;;;6.10;;
52894;SDS011;38759;53.396;6.722;2022-10-16T22:46:13;18.25;;;6.47;;
52894;SDS011;38759;53.396;6.722;2022-10-16T22:48:44;20.05;;;6.18;;
52894;SDS011;38759;53.396;6.722;2022-10-16T22:51:10;23.85;;;6.55;;
52894;SDS011;38759;53.396;6.722;2022-10-16T22:53:38;10.68;;;4.78;;
52894;SDS011;38759;53.396;6.722;2022-10-16T22:56:04;17.95;;;5.90;;
52894;SDS011;38759;53.396;6.722;2022-10-16T22:58:30;15.02;;;4.78;;
52894;SDS011;38759;53.396;6.722;2022-10-16T23:00:55;8.38;;;4.00;;
52894;SDS011;38759;53.396;6.722;2022-10-16T23:03:21;13.15;;;4.70;;
52894;SDS011;38759;53.396;6.722;2022-10-16T23:05:47;17.85;;;5.55;;
52894;SDS011;38759;53.396;6.722;2022-10-16T23:08:13;22.13;;;5.45;;
52894;SDS011;38759;53.396;6.722;2022-10-16T23:10:42;13.27;;;5.50;;
52894;SDS011;38759;53.396;6.722;2022-10-16T23:13:10;19.65;;;5.82;;
52894;SDS011;38759;53.396;6.722;2022-10-16T23:15:39;10.80;;;4.32;;
52894;SDS011;38759;53.396;6.722;2022-10-16T23:18:06;12.25;;;4.22;;
52894;SDS011;38759;53.396;6.722;2022-10-16T23:20:32;14.65;;;5.03;;
52894;SDS011;38759;53.396;6.722;2022-10-16T23:22:57;14.50;;;4.65;;
52894;SDS011;38759;53.396;6.722;2022-10-16T23:25:23;12.38;;;4.60;;
52894;SDS011;38759;53.396;6.722;2022-10-16T23:27:49;12.48;;;4.15;;
52894;SDS011;38759;53.396;6.722;2022-10-16T23:30:17;13.02;;;5.00;;
52894;SDS011;38759;53.396;6.722;2022-10-16T23:32:43;12.77;;;4.40;;
52894;SDS011;38759;53.396;6.722;2022-10-16T23:35:08;15.48;;;4.75;;
52894;SDS011;38759;53.396;6.722;2022-10-16T23:37:34;12.27;;;4.40;;
52894;SDS011;38759;53.396;6.722;2022-10-16T23:39:59;17.38;;;4.70;;
52894;SDS011;38759;53.396;6.722;2022-10-16T23:42:25;12.23;;;4.28;;
52894;SDS011;38759;53.396;6.722;2022-10-16T23:44:51;19.55;;;4.68;;
52894;SDS011;38759;53.396;6.722;2022-10-16T23:47:16;11.32;;;5.15;;
52894;SDS011;38759;53.396;6.722;2022-10-16T23:49:42;17.98;;;5.20;;
52894;SDS011;38759;53.396;6.722;2022-10-16T23:52:07;11.65;;;4.80;;
52894;SDS011;38759;53.396;6.722;2022-10-16T23:54:33;12.60;;;4.80;;
52894;SDS011;38759;53.396;6.722;2022-10-16T23:56:59;14.25;;;4.28;;
52894;SDS011;38759;53.396;6.722;2022-10-16T23:59:24;11.32;;;4.03;;
